Chokio, Minnesota
Current Conditions -  °F | °C
As of 3:25 PM on Friday 24 Oct 2014 (Local Time) from KMOX Reporting Station
Clear Clear  
Wind Chill: 75°   Ceiling: Unl
Heat Index: 75°   Visibility: 10mi
Dew Point: 43°   Wind: 15mph
Humidity: 31%   Direction: 300°WNW
Pressure: 29.82"   Gusts: NA
Location:  45.57°N, 96.17°W
Report Text: KMOX 242025Z AUTO 30013KT 10SM CLR 24/06 A2982 RMK AO2
Loading
Personal Weather Stations






























Interactive Weather Map
Tropical Storm Tracking
New forecast layout! Learn more

10-Day Weather Forecast

Advertisements
Track Severe Weather on mobile